Arbuckle, California
Current Conditions -  °F | °C
As of 5:53 PM on Monday 24 Nov 2014 (Local Time) from KSMF Reporting Station
Clear Clear  
Wind Chill: 54°   Ceiling: Unl
Heat Index: 54°   Visibility: 10mi
Dew Point: 42°   Wind: 3mph
Humidity: 64%   Direction: 140°SE
Pressure: 30.35"   Gusts: NA
Location:  39.02°N, 122.06°W
Report Text: KSMF 250153Z 14003KT 10SM CLR 12/06 A3035 RMK AO2 SLP278 T01220056
Loading
Personal Weather Stations






























Interactive Weather Map New forecast layout! Learn more

10-Day Weather Forecast

Advertisements
Track Severe Weather on mobile